createdAt,value
2023-01-17T00:02:24.033Z,2.60
2023-01-17T00:05:09.899Z,2.90
2023-01-17T00:07:55.426Z,2.50
2023-01-17T00:10:27.120Z,2.50
2023-01-17T00:13:01.527Z,2.70
2023-01-17T00:15:31.367Z,2.50
2023-01-17T00:17:59.649Z,2.50
2023-01-17T00:20:49.284Z,2.50
2023-01-17T00:23:44.861Z,2.60
2023-01-17T00:26:18.758Z,2.60
2023-01-17T00:28:47.690Z,2.50
2023-01-17T00:31:16.295Z,2.50
2023-01-17T00:33:43.640Z,2.50
2023-01-17T00:36:11.588Z,2.50
2023-01-17T00:38:41.329Z,2.40
2023-01-17T00:41:14.753Z,2.40
2023-01-17T00:44:00.614Z,2.40
2023-01-17T00:46:46.607Z,2.30
2023-01-17T00:49:32.329Z,2.40
2023-01-17T00:52:17.780Z,2.30
2023-01-17T00:55:03.812Z,2.20
2023-01-17T00:57:49.459Z,2.30
2023-01-17T01:00:37.902Z,2.30
2023-01-17T01:03:31.080Z,2.30
2023-01-17T01:06:17.057Z,2.20
2023-01-17T01:09:03.049Z,2.20
2023-01-17T01:11:49.051Z,2.20
2023-01-17T01:14:34.478Z,2.40
2023-01-17T01:17:19.876Z,2.30
2023-01-17T01:20:05.446Z,2.20
2023-01-17T01:22:50.786Z,2.30
2023-01-17T01:25:36.216Z,2.30
2023-01-17T01:28:29.889Z,2.30
2023-01-17T01:31:19.155Z,2.30
2023-01-17T01:33:46.344Z,2.30
2023-01-17T01:36:14.275Z,2.30
2023-01-17T01:38:41.351Z,2.20
2023-01-17T01:41:08.856Z,2.20
2023-01-17T01:43:49.397Z,2.20
2023-01-17T01:46:29.880Z,2.20
2023-01-17T01:49:08.808Z,2.20
2023-01-17T01:51:42.659Z,2.20
2023-01-17T01:54:25.610Z,2.30
2023-01-17T01:56:58.641Z,2.30
2023-01-17T01:59:26.822Z,2.20
2023-01-17T02:01:58.236Z,2.20
2023-01-17T02:04:28.254Z,2.30
2023-01-17T02:07:13.092Z,2.30
2023-01-17T02:09:40.367Z,2.30
2023-01-17T02:12:08.957Z,2.30
2023-01-17T02:14:36.032Z,2.30
2023-01-17T02:17:16.817Z,2.30
2023-01-17T02:20:05.135Z,2.30
2023-01-17T02:23:28.355Z,2.30
2023-01-17T02:26:07.455Z,2.30
2023-01-17T02:29:16.587Z,2.30
2023-01-17T02:32:01.229Z,2.30
2023-01-17T02:34:49.231Z,2.30
2023-01-17T02:37:40.210Z,2.30
2023-01-17T02:40:20.681Z,2.30
2023-01-17T02:42:55.167Z,2.30
2023-01-17T02:45:22.477Z,2.30
2023-01-17T02:47:49.537Z,2.30
2023-01-17T02:50:22.852Z,2.50
2023-01-17T02:53:09.466Z,2.40
2023-01-17T02:55:57.760Z,2.40
2023-01-17T02:58:31.021Z,2.30
2023-01-17T03:01:30.239Z,2.30
2023-01-17T03:04:02.876Z,2.30
2023-01-17T03:06:39.922Z,2.60
2023-01-17T03:09:08.641Z,2.30
2023-01-17T03:11:36.314Z,2.30
2023-01-17T03:14:03.396Z,2.40
2023-01-17T03:16:33.682Z,2.30
2023-01-17T03:19:01.161Z,2.30
2023-01-17T03:21:28.225Z,2.30
2023-01-17T03:23:55.790Z,2.20
2023-01-17T03:26:23.003Z,2.20
2023-01-17T03:28:50.711Z,2.20
2023-01-17T03:31:20.174Z,2.20
2023-01-17T03:33:47.591Z,2.20
2023-01-17T03:36:14.835Z,2.20
2023-01-17T03:38:42.006Z,2.20
2023-01-17T03:41:09.135Z,2.20
2023-01-17T03:43:36.245Z,2.20
2023-01-17T03:46:17.485Z,2.20
2023-01-17T03:48:44.732Z,2.20
2023-01-17T03:51:11.810Z,2.10
2023-01-17T03:53:38.880Z,2.10
2023-01-17T03:56:06.638Z,2.10
2023-01-17T03:58:33.873Z,2.10
2023-01-17T04:01:01.038Z,2.00
2023-01-17T04:03:28.169Z,2.10
2023-01-17T04:05:55.804Z,2.10
2023-01-17T04:08:23.016Z,2.00
2023-01-17T04:10:50.123Z,2.20
2023-01-17T04:13:17.189Z,2.10
2023-01-17T04:15:48.481Z,2.10
2023-01-17T04:18:18.637Z,2.30
2023-01-17T04:20:46.011Z,2.10
2023-01-17T04:23:13.144Z,2.10
2023-01-17T04:25:40.528Z,2.10
2023-01-17T04:28:07.713Z,2.10
2023-01-17T04:30:34.861Z,2.00
2023-01-17T04:33:02.751Z,1.90
2023-01-17T04:35:31.548Z,2.20
2023-01-17T04:37:58.687Z,1.90
2023-01-17T04:40:26.518Z,2.00
2023-01-17T04:42:54.402Z,1.80
2023-01-17T04:45:21.641Z,1.90
2023-01-17T04:47:48.805Z,1.90
2023-01-17T04:50:16.488Z,1.90
2023-01-17T04:52:43.620Z,1.90
2023-01-17T04:55:10.951Z,2.00
2023-01-17T04:57:38.067Z,1.80
2023-01-17T05:00:06.416Z,1.80
2023-01-17T05:02:33.869Z,1.80
2023-01-17T05:05:01.019Z,1.90
2023-01-17T05:07:28.117Z,1.80
2023-01-17T05:09:55.136Z,2.00
2023-01-17T05:12:22.213Z,1.80
2023-01-17T05:14:49.295Z,1.70
2023-01-17T05:17:16.549Z,1.80
2023-01-17T05:19:43.657Z,1.70
2023-01-17T05:22:15.347Z,1.70
2023-01-17T05:24:48.198Z,1.70
2023-01-17T05:27:15.930Z,1.70
2023-01-17T05:29:43.067Z,1.70
2023-01-17T05:32:10.284Z,1.80
2023-01-17T05:34:37.406Z,1.70
2023-01-17T05:37:04.926Z,1.60
2023-01-17T05:39:32.113Z,1.70
2023-01-17T05:41:59.919Z,1.70
2023-01-17T05:44:27.811Z,1.70
2023-01-17T05:46:56.344Z,1.80
2023-01-17T05:49:23.568Z,1.60
2023-01-17T05:51:50.731Z,1.70
2023-01-17T05:54:18.019Z,1.80
2023-01-17T05:56:45.227Z,1.60
2023-01-17T05:59:14.198Z,1.60
2023-01-17T06:01:41.475Z,1.80
2023-01-17T06:04:08.554Z,1.60
2023-01-17T06:06:35.661Z,1.60
2023-01-17T06:09:02.984Z,1.70
2023-01-17T06:11:30.545Z,1.60
2023-01-17T06:13:57.680Z,1.60
2023-01-17T06:16:24.824Z,1.60
2023-01-17T06:18:52.085Z,1.50
2023-01-17T06:21:19.824Z,1.50
2023-01-17T06:23:46.920Z,1.60
2023-01-17T06:26:14.065Z,1.50
2023-01-17T06:28:41.185Z,1.50
2023-01-17T06:31:09.402Z,1.50
2023-01-17T06:33:36.676Z,1.50
2023-01-17T06:36:04.407Z,1.70
2023-01-17T06:38:31.625Z,1.40
2023-01-17T06:41:00.502Z,1.50
2023-01-17T06:43:32.625Z,1.40
2023-01-17T06:46:01.292Z,1.40
2023-01-17T06:48:28.529Z,1.40
2023-01-17T06:50:58.092Z,1.30
2023-01-17T06:53:25.661Z,1.20
2023-01-17T06:55:57.760Z,1.20
2023-01-17T06:58:25.162Z,1.20
2023-01-17T07:00:52.435Z,1.10
2023-01-17T07:03:23.400Z,1.10
2023-01-17T07:05:51.227Z,1.10
2023-01-17T07:08:20.536Z,1.10
2023-01-17T07:10:49.019Z,1.00
2023-01-17T07:13:16.226Z,1.00
2023-01-17T07:15:43.439Z,1.00
2023-01-17T07:18:10.568Z,1.00
2023-01-17T07:20:38.500Z,0.90
2023-01-17T07:23:06.723Z,0.90
2023-01-17T07:25:33.792Z,0.90
2023-01-17T07:28:00.889Z,0.80
2023-01-17T07:30:28.012Z,0.80
2023-01-17T07:32:56.279Z,0.80
2023-01-17T07:35:27.685Z,0.80
2023-01-17T07:37:55.387Z,0.90
2023-01-17T07:40:23.436Z,0.80
2023-01-17T07:42:50.551Z,0.70
2023-01-17T07:45:18.091Z,0.70
2023-01-17T07:47:45.616Z,0.70
2023-01-17T07:50:13.651Z,0.70
2023-01-17T07:52:40.823Z,0.70
2023-01-17T07:55:09.251Z,0.60
2023-01-17T07:57:36.453Z,0.60
2023-01-17T08:00:05.337Z,0.60
2023-01-17T08:02:39.564Z,0.50
2023-01-17T08:05:07.073Z,0.50
2023-01-17T08:07:34.807Z,0.50
2023-01-17T08:10:02.084Z,0.50
2023-01-17T08:12:29.641Z,0.50
2023-01-17T08:14:56.772Z,0.50
2023-01-17T08:17:23.980Z,0.60
2023-01-17T08:19:52.257Z,0.60
2023-01-17T08:22:19.593Z,0.80
2023-01-17T08:24:46.736Z,0.70
2023-01-17T08:27:13.893Z,0.70
2023-01-17T08:29:46.920Z,0.70
2023-01-17T08:32:14.831Z,0.70
2023-01-17T08:34:42.155Z,0.70
2023-01-17T08:37:09.695Z,0.80
2023-01-17T08:39:36.753Z,0.90
2023-01-17T08:42:04.309Z,0.80
2023-01-17T08:44:31.604Z,0.80
2023-01-17T08:46:58.747Z,0.90
2023-01-17T08:49:25.852Z,0.90
2023-01-17T08:51:53.070Z,0.90
2023-01-17T08:54:20.334Z,0.90
2023-01-17T08:56:47.601Z,1.00
2023-01-17T08:59:14.860Z,1.10
2023-01-17T09:01:42.283Z,1.10
2023-01-17T09:04:10.681Z,1.00
2023-01-17T09:06:41.141Z,1.10
2023-01-17T09:09:11.168Z,1.10
2023-01-17T09:11:38.773Z,1.00
2023-01-17T09:14:06.001Z,1.00
2023-01-17T09:16:34.244Z,1.10
2023-01-17T09:19:01.520Z,1.10
2023-01-17T09:21:28.626Z,1.00
2023-01-17T09:23:56.293Z,1.00
2023-01-17T09:26:27.300Z,1.10
2023-01-17T09:28:55.597Z,1.30
2023-01-17T09:31:23.823Z,1.20
2023-01-17T09:33:53.414Z,1.00
2023-01-17T09:36:22.174Z,1.00
2023-01-17T09:38:49.493Z,0.90
2023-01-17T09:41:35.182Z,0.80
2023-01-17T09:44:17.713Z,1.00
2023-01-17T09:46:48.972Z,0.90
2023-01-17T09:49:43.225Z,0.90
2023-01-17T09:52:21.396Z,0.90
2023-01-17T09:54:50.880Z,0.90
2023-01-17T09:57:58.312Z,0.90
2023-01-17T10:00:36.847Z,0.90
2023-01-17T10:03:39.925Z,0.90
2023-01-17T10:06:54.464Z,1.00
2023-01-17T10:09:43.647Z,1.00
2023-01-17T10:12:52.029Z,1.00
2023-01-17T10:16:00.829Z,1.10
2023-01-17T10:19:05.831Z,1.10
2023-01-17T10:22:13.945Z,1.10
2023-01-17T10:25:33.242Z,1.10
2023-01-17T10:28:14.578Z,1.20
2023-01-17T10:31:07.554Z,1.20
2023-01-17T10:33:53.115Z,1.20
2023-01-17T10:36:26.557Z,1.20
2023-01-17T10:38:59.471Z,1.20
2023-01-17T10:41:30.697Z,1.20
2023-01-17T10:44:11.878Z,1.30
2023-01-17T10:46:47.331Z,1.30
2023-01-17T10:49:22.566Z,1.30
2023-01-17T10:52:13.817Z,1.40
2023-01-17T10:55:12.857Z,1.30
2023-01-17T10:57:45.000Z,1.40
2023-01-17T11:00:43.974Z,1.40
2023-01-17T11:03:14.395Z,1.40
2023-01-17T11:05:43.219Z,1.40
2023-01-17T11:08:13.468Z,1.40
2023-01-17T11:10:58.036Z,1.50
2023-01-17T11:13:47.808Z,1.50
2023-01-17T11:16:29.630Z,1.60
2023-01-17T11:19:32.365Z,1.60
2023-01-17T11:22:04.999Z,1.70
2023-01-17T11:24:47.503Z,1.70
2023-01-17T11:27:33.998Z,1.70
2023-01-17T11:30:21.945Z,1.70
2023-01-17T11:32:56.211Z,1.70
2023-01-17T11:35:41.196Z,1.80
2023-01-17T11:38:21.991Z,1.80
2023-01-17T11:40:50.761Z,1.80
2023-01-17T11:43:25.646Z,1.80
2023-01-17T11:46:20.634Z,1.90
2023-01-17T11:49:00.850Z,1.90
2023-01-17T11:51:33.184Z,1.80
2023-01-17T11:54:26.951Z,1.90
2023-01-17T11:57:02.258Z,1.90
2023-01-17T11:59:37.512Z,2.00
2023-01-17T12:02:45.905Z,2.00
2023-01-17T12:06:23.773Z,2.10
2023-01-17T12:09:27.171Z,2.30
2023-01-17T12:12:51.294Z,2.40
2023-01-17T12:15:39.380Z,2.50
2023-01-17T12:18:33.856Z,2.50
2023-01-17T12:21:38.664Z,2.50
2023-01-17T12:24:32.829Z,2.50
2023-01-17T12:27:27.952Z,2.50
2023-01-17T12:30:03.896Z,2.50
2023-01-17T12:32:54.081Z,2.50
2023-01-17T12:35:43.962Z,2.50
2023-01-17T12:38:31.774Z,2.50
2023-01-17T12:41:11.469Z,2.50
2023-01-17T12:43:41.452Z,2.50
2023-01-17T12:46:44.051Z,2.60
2023-01-17T12:49:20.026Z,2.50
2023-01-17T12:51:55.846Z,2.60
2023-01-17T12:54:36.849Z,2.60
2023-01-17T12:57:14.818Z,2.60
2023-01-17T13:00:04.711Z,2.60
2023-01-17T13:03:20.547Z,2.60
2023-01-17T13:05:48.823Z,2.70
2023-01-17T13:08:41.770Z,2.70
2023-01-17T13:11:27.861Z,2.70
2023-01-17T13:13:57.612Z,2.70
2023-01-17T13:16:45.300Z,2.70
2023-01-17T13:19:41.571Z,2.70
2023-01-17T13:22:18.344Z,2.70
2023-01-17T13:24:57.601Z,2.70
2023-01-17T13:27:46.625Z,2.80
2023-01-17T13:31:01.280Z,2.80
2023-01-17T13:33:32.832Z,2.80
2023-01-17T13:36:14.813Z,2.80
2023-01-17T13:39:37.217Z,2.80
2023-01-17T13:42:41.233Z,2.90
2023-01-17T13:45:19.193Z,2.90
2023-01-17T13:47:46.318Z,2.90
2023-01-17T13:50:45.431Z,2.90
2023-01-17T13:53:33.900Z,2.90
2023-01-17T13:56:19.414Z,2.80
2023-01-17T13:58:54.545Z,2.70
2023-01-17T14:01:24.870Z,2.80
2023-01-17T14:03:52.680Z,2.80
2023-01-17T14:06:46.932Z,2.80
2023-01-17T14:09:30.458Z,2.80
2023-01-17T14:12:06.918Z,2.80
2023-01-17T14:14:47.917Z,2.90
2023-01-17T14:17:22.849Z,2.90
2023-01-17T14:20:09.461Z,2.90
2023-01-17T14:22:47.521Z,2.90
2023-01-17T14:25:19.371Z,2.90
2023-01-17T14:27:54.839Z,3.00
2023-01-17T14:30:28.449Z,3.00
2023-01-17T14:33:01.557Z,3.00
2023-01-17T14:35:34.740Z,3.00
2023-01-17T14:38:05.326Z,3.00
2023-01-17T14:40:37.509Z,3.10
2023-01-17T14:43:20.253Z,3.00
2023-01-17T14:45:48.188Z,3.00
2023-01-17T14:48:19.638Z,3.00
2023-01-17T14:50:52.375Z,3.00
2023-01-17T14:53:27.977Z,2.90
2023-01-17T14:55:58.510Z,2.90
2023-01-17T14:58:32.517Z,3.00
2023-01-17T15:01:03.292Z,2.90
2023-01-17T15:03:45.474Z,2.90
2023-01-17T15:06:29.148Z,2.90
2023-01-17T15:08:56.267Z,2.90
2023-01-17T15:11:33.378Z,2.80
2023-01-17T15:14:06.005Z,2.90
2023-01-17T15:16:38.102Z,2.80
2023-01-17T15:19:15.148Z,2.80
2023-01-17T15:21:45.793Z,2.80
2023-01-17T15:24:25.415Z,2.70
2023-01-17T15:26:52.747Z,2.70
2023-01-17T15:29:28.723Z,2.70
2023-01-17T15:32:02.100Z,2.70
2023-01-17T15:34:39.512Z,2.60
2023-01-17T15:37:42.952Z,2.60
2023-01-17T15:40:21.543Z,2.60
2023-01-17T15:43:01.085Z,2.40
2023-01-17T15:45:32.208Z,2.40
2023-01-17T15:48:38.517Z,2.30
2023-01-17T15:51:05.890Z,2.30
2023-01-17T15:53:37.709Z,2.20
2023-01-17T15:56:42.033Z,2.10
2023-01-17T16:00:05.964Z,2.10
2023-01-17T16:02:43.358Z,2.00
2023-01-17T16:05:27.611Z,1.90
2023-01-17T16:08:04.440Z,1.90
2023-01-17T16:10:37.859Z,1.80
2023-01-17T16:13:11.018Z,1.90
2023-01-17T16:15:39.779Z,1.80
2023-01-17T16:18:16.629Z,1.60
2023-01-17T16:20:47.962Z,1.70
2023-01-17T16:23:15.214Z,1.60
2023-01-17T16:25:44.459Z,1.60
2023-01-17T16:28:11.680Z,1.60
2023-01-17T16:30:38.901Z,1.50
2023-01-17T16:33:06.390Z,1.50
2023-01-17T16:35:34.320Z,1.50
2023-01-17T16:38:05.380Z,1.50
2023-01-17T16:40:43.912Z,1.50
2023-01-17T16:43:13.393Z,1.40
2023-01-17T16:45:43.846Z,1.40
2023-01-17T16:48:13.694Z,1.30
2023-01-17T16:50:48.281Z,1.30
2023-01-17T16:53:24.321Z,1.20
2023-01-17T16:55:57.035Z,1.20
2023-01-17T16:58:25.068Z,1.20
2023-01-17T17:00:52.394Z,1.10
2023-01-17T17:03:22.984Z,1.10
2023-01-17T17:06:00.246Z,1.10
2023-01-17T17:08:29.621Z,1.10
2023-01-17T17:11:15.663Z,1.10
2023-01-17T17:13:49.029Z,1.00
2023-01-17T17:16:29.913Z,1.00
2023-01-17T17:19:04.531Z,1.00
2023-01-17T17:21:33.988Z,0.90
2023-01-17T17:24:02.130Z,0.90
2023-01-17T17:26:39.251Z,0.90
2023-01-17T17:29:12.154Z,0.90
2023-01-17T17:31:43.312Z,0.90
2023-01-17T17:34:15.088Z,0.80
2023-01-17T17:36:42.795Z,1.00
2023-01-17T17:39:17.483Z,0.80
2023-01-17T17:41:45.934Z,0.80
2023-01-17T17:44:14.464Z,0.80
2023-01-17T17:46:42.969Z,0.80
2023-01-17T17:49:10.137Z,0.80
2023-01-17T17:51:40.332Z,0.70
2023-01-17T17:54:11.580Z,0.70
2023-01-17T17:56:39.893Z,0.70
2023-01-17T17:59:09.562Z,0.70
2023-01-17T18:01:41.013Z,0.70
2023-01-17T18:04:09.129Z,0.80
2023-01-17T18:06:38.602Z,0.80
2023-01-17T18:09:11.035Z,0.80
2023-01-17T18:11:41.583Z,0.90
2023-01-17T18:14:13.711Z,1.40
2023-01-17T18:16:44.189Z,0.80
2023-01-17T18:19:22.611Z,0.90
2023-01-17T18:21:51.411Z,0.90
2023-01-17T18:24:22.288Z,0.90
2023-01-17T18:26:58.900Z,0.90
2023-01-17T18:29:27.580Z,0.90
2023-01-17T18:31:55.683Z,0.90
2023-01-17T18:34:29.232Z,0.90
2023-01-17T18:36:57.760Z,0.80
2023-01-17T18:39:29.216Z,1.10
2023-01-17T18:41:57.110Z,0.90
2023-01-17T18:44:25.203Z,0.90
2023-01-17T18:46:54.819Z,0.80
2023-01-17T18:49:21.969Z,0.90
2023-01-17T18:51:51.261Z,0.80
2023-01-17T18:54:20.321Z,0.80
2023-01-17T18:56:48.239Z,0.80
2023-01-17T18:59:18.265Z,0.70
2023-01-17T19:01:46.032Z,0.70
2023-01-17T19:04:16.265Z,0.70
2023-01-17T19:06:46.688Z,0.70
2023-01-17T19:09:16.337Z,0.70
2023-01-17T19:11:45.543Z,0.60
2023-01-17T19:14:13.089Z,0.60
2023-01-17T19:16:42.292Z,0.60
2023-01-17T19:19:13.954Z,0.60
2023-01-17T19:21:41.343Z,0.60
2023-01-17T19:24:10.664Z,0.50
2023-01-17T19:26:37.959Z,0.50
2023-01-17T19:29:06.754Z,0.50
2023-01-17T19:31:43.320Z,0.50
2023-01-17T19:34:13.915Z,0.50
2023-01-17T19:36:41.266Z,0.40
2023-01-17T19:39:09.682Z,0.40
2023-01-17T19:41:43.247Z,0.80
2023-01-17T19:44:13.349Z,0.40
2023-01-17T19:46:40.567Z,0.40
2023-01-17T19:49:09.332Z,0.40
2023-01-17T19:51:37.305Z,0.50
2023-01-17T19:54:06.524Z,0.30
2023-01-17T19:56:33.886Z,0.40
2023-01-17T19:59:01.774Z,0.30
2023-01-17T20:01:33.951Z,0.50
2023-01-17T20:04:03.521Z,0.40
2023-01-17T20:06:35.451Z,0.30
2023-01-17T20:09:04.700Z,0.30
2023-01-17T20:11:32.228Z,0.30
2023-01-17T20:14:00.415Z,0.20
2023-01-17T20:16:31.463Z,0.30
2023-01-17T20:18:59.555Z,0.20
2023-01-17T20:21:29.870Z,0.20
2023-01-17T20:24:00.212Z,0.20
2023-01-17T20:26:37.088Z,0.30
2023-01-17T20:29:14.815Z,0.20
2023-01-17T20:31:43.520Z,0.20
2023-01-17T20:34:14.206Z,0.20
2023-01-17T20:36:42.218Z,0.20
2023-01-17T20:39:12.450Z,0.10
2023-01-17T20:41:43.029Z,0.10
2023-01-17T20:44:14.824Z,0.00
2023-01-17T20:46:42.644Z,0.10
2023-01-17T20:49:19.331Z,-0.10
2023-01-17T20:51:47.944Z,-0.10
2023-01-17T20:54:21.030Z,-0.10
2023-01-17T20:56:48.389Z,-0.10
2023-01-17T20:59:19.631Z,-0.10
2023-01-17T21:01:47.240Z,-0.10
2023-01-17T21:04:15.329Z,0.00
2023-01-17T21:06:44.182Z,0.00
2023-01-17T21:09:14.796Z,-0.10
2023-01-17T21:11:42.111Z,-0.10
2023-01-17T21:14:09.309Z,-0.20
2023-01-17T21:16:36.767Z,-0.20
2023-01-17T21:19:04.984Z,-0.20
2023-01-17T21:21:32.258Z,-0.10
2023-01-17T21:23:59.961Z,-0.20
2023-01-17T21:26:28.680Z,-0.20
2023-01-17T21:28:58.049Z,0.10
2023-01-17T21:31:29.525Z,-0.20
2023-01-17T21:34:00.882Z,-0.30
2023-01-17T21:36:35.004Z,-0.30
2023-01-17T21:39:06.583Z,-0.30
2023-01-17T21:41:38.263Z,0.10
2023-01-17T21:44:11.614Z,-0.40
2023-01-17T21:46:40.546Z,-0.40
2023-01-17T21:49:12.873Z,-0.40
2023-01-17T21:51:54.710Z,-0.50
2023-01-17T21:54:45.677Z,-0.50
2023-01-17T21:57:39.343Z,-0.50
2023-01-17T22:00:10.304Z,2.30
2023-01-17T22:02:45.122Z,-0.40
2023-01-17T22:05:13.093Z,-0.50
2023-01-17T22:07:40.666Z,-0.40
2023-01-17T22:10:08.439Z,-0.40
2023-01-17T22:12:35.584Z,-0.40
2023-01-17T22:15:02.839Z,-0.50
2023-01-17T22:17:30.680Z,-0.40
2023-01-17T22:19:57.817Z,-0.50
2023-01-17T22:22:24.891Z,-0.50
2023-01-17T22:24:52.076Z,-0.50
2023-01-17T22:27:20.507Z,-0.60
2023-01-17T22:29:47.814Z,-0.50
2023-01-17T22:32:14.985Z,-0.50
2023-01-17T22:34:42.079Z,-0.70
2023-01-17T22:37:10.239Z,-0.40
2023-01-17T22:39:39.392Z,-0.90
2023-01-17T22:42:07.348Z,-0.70
2023-01-17T22:44:34.534Z,-0.40
2023-01-17T22:47:02.076Z,-0.60
2023-01-17T22:49:29.086Z,-0.90
2023-01-17T22:51:56.145Z,-0.50
2023-01-17T22:54:23.445Z,-1.00
2023-01-17T22:56:50.592Z,-0.80
2023-01-17T22:59:17.704Z,-0.70
2023-01-17T23:01:44.791Z,-0.70
2023-01-17T23:04:17.302Z,-0.70
2023-01-17T23:06:44.416Z,-0.50
2023-01-17T23:09:15.312Z,-1.00
2023-01-17T23:11:52.009Z,-0.80
2023-01-17T23:14:23.929Z,-0.80
2023-01-17T23:17:20.577Z,-0.70
2023-01-17T23:19:54.526Z,-0.50
2023-01-17T23:22:26.918Z,-0.60
2023-01-17T23:24:55.786Z,-0.70
2023-01-17T23:27:50.879Z,-0.80
2023-01-17T23:30:34.852Z,-0.80
2023-01-17T23:33:06.604Z,-0.70
2023-01-17T23:35:41.522Z,-0.60
2023-01-17T23:38:26.685Z,-0.80
2023-01-17T23:41:27.228Z,-0.70
2023-01-17T23:43:57.738Z,-0.80
2023-01-17T23:46:26.783Z,-0.70
2023-01-17T23:48:55.097Z,-0.90
2023-01-17T23:51:22.460Z,-1.00
2023-01-17T23:53:51.003Z,-0.80
2023-01-17T23:56:24.772Z,-0.90
2023-01-17T23:58:51.949Z,-0.90
